sensor_id;sensor_type;location;lat;lon;timestamp;temperature;humidity
73277;DHT22;61501;43.316;5.372;2022-10-30T00:00:54;19.20;61.80
73277;DHT22;61501;43.316;5.372;2022-10-30T00:03:20;19.20;61.90
73277;DHT22;61501;43.316;5.372;2022-10-30T00:05:48;19.20;61.80
73277;DHT22;61501;43.316;5.372;2022-10-30T00:08:16;19.10;60.60
73277;DHT22;61501;43.316;5.372;2022-10-30T00:10:42;19.10;60.90
73277;DHT22;61501;43.316;5.372;2022-10-30T00:13:09;19.10;60.40
73277;DHT22;61501;43.316;5.372;2022-10-30T00:15:34;19.00;60.40
73277;DHT22;61501;43.316;5.372;2022-10-30T00:18:00;19.00;59.90
73277;DHT22;61501;43.316;5.372;2022-10-30T00:20:26;19.10;60.20
73277;DHT22;61501;43.316;5.372;2022-10-30T00:22:51;19.10;59.40
73277;DHT22;61501;43.316;5.372;2022-10-30T00:25:17;19.10;58.50
73277;DHT22;61501;43.316;5.372;2022-10-30T00:27:43;19.10;58.20
73277;DHT22;61501;43.316;5.372;2022-10-30T00:30:09;19.10;58.40
73277;DHT22;61501;43.316;5.372;2022-10-30T00:32:35;19.10;58.90
73277;DHT22;61501;43.316;5.372;2022-10-30T00:35:00;19.10;58.10
73277;DHT22;61501;43.316;5.372;2022-10-30T00:37:26;19.10;57.20
73277;DHT22;61501;43.316;5.372;2022-10-30T00:39:51;19.10;56.70
73277;DHT22;61501;43.316;5.372;2022-10-30T00:42:17;19.10;57.10
73277;DHT22;61501;43.316;5.372;2022-10-30T00:47:35;19.10;57.00
73277;DHT22;61501;43.316;5.372;2022-10-30T00:50:33;19.10;57.30
73277;DHT22;61501;43.316;5.372;2022-10-30T00:53:09;19.10;57.70
73277;DHT22;61501;43.316;5.372;2022-10-30T00:55:39;19.10;54.20
73277;DHT22;61501;43.316;5.372;2022-10-30T00:58:09;19.10;54.30
73277;DHT22;61501;43.316;5.372;2022-10-30T01:00:36;19.10;54.60
73277;DHT22;61501;43.316;5.372;2022-10-30T01:03:03;19.10;54.10
73277;DHT22;61501;43.316;5.372;2022-10-30T01:05:31;19.20;53.80
73277;DHT22;61501;43.316;5.372;2022-10-30T01:07:57;19.20;54.60
73277;DHT22;61501;43.316;5.372;2022-10-30T01:10:23;19.20;54.70
73277;DHT22;61501;43.316;5.372;2022-10-30T01:12:51;19.10;54.80
73277;DHT22;61501;43.316;5.372;2022-10-30T01:15:32;19.10;53.80
73277;DHT22;61501;43.316;5.372;2022-10-30T01:29:32;19.20;53.90
73277;DHT22;61501;43.316;5.372;2022-10-30T01:34:57;19.20;53.60
73277;DHT22;61501;43.316;5.372;2022-10-30T01:37:36;19.20;51.50
73277;DHT22;61501;43.316;5.372;2022-10-30T01:40:08;19.20;51.60
73277;DHT22;61501;43.316;5.372;2022-10-30T01:42:47;19.20;51.60
73277;DHT22;61501;43.316;5.372;2022-10-30T01:45:18;19.20;51.30
73277;DHT22;61501;43.316;5.372;2022-10-30T01:48:12;19.20;53.00
73277;DHT22;61501;43.316;5.372;2022-10-30T01:50:47;19.10;52.50
73277;DHT22;61501;43.316;5.372;2022-10-30T01:54:00;19.10;53.10
73277;DHT22;61501;43.316;5.372;2022-10-30T01:57:25;19.00;52.50
73277;DHT22;61501;43.316;5.372;2022-10-30T01:59:54;19.00;52.10
73277;DHT22;61501;43.316;5.372;2022-10-30T02:02:22;19.00;52.10
73277;DHT22;61501;43.316;5.372;2022-10-30T02:04:49;19.00;52.50
73277;DHT22;61501;43.316;5.372;2022-10-30T02:07:15;19.10;51.80
73277;DHT22;61501;43.316;5.372;2022-10-30T02:09:41;19.10;52.50
73277;DHT22;61501;43.316;5.372;2022-10-30T02:12:08;19.10;52.10
73277;DHT22;61501;43.316;5.372;2022-10-30T02:14:39;19.10;51.60
73277;DHT22;61501;43.316;5.372;2022-10-30T02:17:06;19.10;52.10
73277;DHT22;61501;43.316;5.372;2022-10-30T02:19:32;19.10;51.90
73277;DHT22;61501;43.316;5.372;2022-10-30T02:21:58;19.00;52.80
73277;DHT22;61501;43.316;5.372;2022-10-30T02:24:24;19.00;52.80
73277;DHT22;61501;43.316;5.372;2022-10-30T02:26:49;18.90;52.90
73277;DHT22;61501;43.316;5.372;2022-10-30T02:29:15;18.90;53.10
73277;DHT22;61501;43.316;5.372;2022-10-30T02:31:45;18.90;53.40
73277;DHT22;61501;43.316;5.372;2022-10-30T02:34:10;18.80;53.70
73277;DHT22;61501;43.316;5.372;2022-10-30T02:36:36;18.80;53.70
73277;DHT22;61501;43.316;5.372;2022-10-30T02:39:02;18.90;53.20
73277;DHT22;61501;43.316;5.372;2022-10-30T02:41:27;18.90;53.50
73277;DHT22;61501;43.316;5.372;2022-10-30T02:43:53;18.90;53.30
73277;DHT22;61501;43.316;5.372;2022-10-30T02:46:19;18.90;53.80
73277;DHT22;61501;43.316;5.372;2022-10-30T02:48:45;18.90;53.40
73277;DHT22;61501;43.316;5.372;2022-10-30T02:51:10;18.90;53.10
73277;DHT22;61501;43.316;5.372;2022-10-30T02:53:37;18.90;52.40
73277;DHT22;61501;43.316;5.372;2022-10-30T02:56:07;19.00;52.70
73277;DHT22;61501;43.316;5.372;2022-10-30T02:58:34;19.00;52.70
73277;DHT22;61501;43.316;5.372;2022-10-30T03:01:11;19.00;52.90
73277;DHT22;61501;43.316;5.372;2022-10-30T03:03:37;19.00;52.00
73277;DHT22;61501;43.316;5.372;2022-10-30T03:06:04;19.00;52.50
73277;DHT22;61501;43.316;5.372;2022-10-30T03:08:30;19.10;52.30
73277;DHT22;61501;43.316;5.372;2022-10-30T03:11:07;19.10;51.80
73277;DHT22;61501;43.316;5.372;2022-10-30T03:13:34;19.10;51.90
73277;DHT22;61501;43.316;5.372;2022-10-30T03:16:02;19.10;51.90
73277;DHT22;61501;43.316;5.372;2022-10-30T03:18:29;19.10;52.10
73277;DHT22;61501;43.316;5.372;2022-10-30T03:20:56;19.20;51.80
73277;DHT22;61501;43.316;5.372;2022-10-30T03:23:22;19.20;52.20
73277;DHT22;61501;43.316;5.372;2022-10-30T03:25:51;19.20;52.20
73277;DHT22;61501;43.316;5.372;2022-10-30T03:28:17;19.20;52.00
73277;DHT22;61501;43.316;5.372;2022-10-30T03:30:43;19.20;53.00
73277;DHT22;61501;43.316;5.372;2022-10-30T03:33:08;19.30;51.60
73277;DHT22;61501;43.316;5.372;2022-10-30T03:35:35;19.30;51.70
73277;DHT22;61501;43.316;5.372;2022-10-30T03:38:00;19.30;52.30
73277;DHT22;61501;43.316;5.372;2022-10-30T03:40:26;19.30;52.80
73277;DHT22;61501;43.316;5.372;2022-10-30T03:42:52;19.30;52.80
73277;DHT22;61501;43.316;5.372;2022-10-30T03:45:17;19.30;53.10
73277;DHT22;61501;43.316;5.372;2022-10-30T03:47:43;19.30;52.40
73277;DHT22;61501;43.316;5.372;2022-10-30T03:50:09;19.30;52.40
73277;DHT22;61501;43.316;5.372;2022-10-30T03:52:34;19.30;52.80
73277;DHT22;61501;43.316;5.372;2022-10-30T03:55:00;19.30;52.80
73277;DHT22;61501;43.316;5.372;2022-10-30T03:57:26;19.30;52.50
73277;DHT22;61501;43.316;5.372;2022-10-30T03:59:51;19.30;52.80
73277;DHT22;61501;43.316;5.372;2022-10-30T04:02:17;19.30;53.10
73277;DHT22;61501;43.316;5.372;2022-10-30T04:04:42;19.30;53.40
73277;DHT22;61501;43.316;5.372;2022-10-30T04:07:08;19.30;53.30
73277;DHT22;61501;43.316;5.372;2022-10-30T04:09:33;19.20;53.20
73277;DHT22;61501;43.316;5.372;2022-10-30T04:11:59;19.20;53.40
73277;DHT22;61501;43.316;5.372;2022-10-30T04:14:24;19.20;53.30
73277;DHT22;61501;43.316;5.372;2022-10-30T04:16:50;19.20;52.80
73277;DHT22;61501;43.316;5.372;2022-10-30T04:19:16;19.20;53.20
73277;DHT22;61501;43.316;5.372;2022-10-30T04:21:42;19.20;53.00
73277;DHT22;61501;43.316;5.372;2022-10-30T04:24:08;19.10;52.70
73277;DHT22;61501;43.316;5.372;2022-10-30T04:26:34;19.10;52.30
73277;DHT22;61501;43.316;5.372;2022-10-30T04:28:59;19.10;52.80
73277;DHT22;61501;43.316;5.372;2022-10-30T04:31:25;19.10;52.60
73277;DHT22;61501;43.316;5.372;2022-10-30T04:33:51;19.10;53.20
73277;DHT22;61501;43.316;5.372;2022-10-30T04:36:16;19.00;53.20
73277;DHT22;61501;43.316;5.372;2022-10-30T04:38:43;19.00;52.70
73277;DHT22;61501;43.316;5.372;2022-10-30T04:41:08;19.00;52.90
73277;DHT22;61501;43.316;5.372;2022-10-30T04:43:34;19.00;52.40
73277;DHT22;61501;43.316;5.372;2022-10-30T04:46:03;19.00;52.40
73277;DHT22;61501;43.316;5.372;2022-10-30T04:48:29;19.00;52.40
73277;DHT22;61501;43.316;5.372;2022-10-30T04:50:57;18.90;52.60
73277;DHT22;61501;43.316;5.372;2022-10-30T04:53:23;18.90;52.90
73277;DHT22;61501;43.316;5.372;2022-10-30T04:55:52;18.90;53.10
73277;DHT22;61501;43.316;5.372;2022-10-30T04:58:18;18.90;53.60
73277;DHT22;61501;43.316;5.372;2022-10-30T05:00:44;18.90;52.80
73277;DHT22;61501;43.316;5.372;2022-10-30T05:03:23;18.80;53.20
73277;DHT22;61501;43.316;5.372;2022-10-30T05:06:17;18.80;52.80
73277;DHT22;61501;43.316;5.372;2022-10-30T05:08:44;18.80;52.30
73277;DHT22;61501;43.316;5.372;2022-10-30T05:11:09;18.80;52.60
73277;DHT22;61501;43.316;5.372;2022-10-30T05:13:35;18.70;52.40
73277;DHT22;61501;43.316;5.372;2022-10-30T05:16:00;18.70;52.30
73277;DHT22;61501;43.316;5.372;2022-10-30T05:18:26;18.70;52.90
73277;DHT22;61501;43.316;5.372;2022-10-30T05:20:51;18.70;53.30
73277;DHT22;61501;43.316;5.372;2022-10-30T05:23:17;18.70;53.60
73277;DHT22;61501;43.316;5.372;2022-10-30T05:25:43;18.70;53.40
73277;DHT22;61501;43.316;5.372;2022-10-30T05:28:08;18.70;52.90
73277;DHT22;61501;43.316;5.372;2022-10-30T05:30:35;18.70;53.40
73277;DHT22;61501;43.316;5.372;2022-10-30T05:33:05;18.60;54.20
73277;DHT22;61501;43.316;5.372;2022-10-30T05:35:34;18.70;53.70
73277;DHT22;61501;43.316;5.372;2022-10-30T05:38:01;18.60;53.70
73277;DHT22;61501;43.316;5.372;2022-10-30T05:40:27;18.60;53.60
73277;DHT22;61501;43.316;5.372;2022-10-30T05:42:52;18.50;53.70
73277;DHT22;61501;43.316;5.372;2022-10-30T05:45:18;18.60;54.00
73277;DHT22;61501;43.316;5.372;2022-10-30T05:47:56;18.60;53.90
73277;DHT22;61501;43.316;5.372;2022-10-30T05:50:22;18.60;54.10
73277;DHT22;61501;43.316;5.372;2022-10-30T05:52:48;18.60;54.10
73277;DHT22;61501;43.316;5.372;2022-10-30T05:55:13;18.60;54.20
73277;DHT22;61501;43.316;5.372;2022-10-30T05:57:39;18.60;54.30
73277;DHT22;61501;43.316;5.372;2022-10-30T06:00:05;18.60;54.30
73277;DHT22;61501;43.316;5.372;2022-10-30T06:02:31;18.60;55.00
73277;DHT22;61501;43.316;5.372;2022-10-30T06:04:57;18.60;55.20
73277;DHT22;61501;43.316;5.372;2022-10-30T06:07:22;18.60;54.90
73277;DHT22;61501;43.316;5.372;2022-10-30T06:09:48;18.60;55.10
73277;DHT22;61501;43.316;5.372;2022-10-30T06:12:14;18.70;56.20
73277;DHT22;61501;43.316;5.372;2022-10-30T06:14:39;18.70;56.10
73277;DHT22;61501;43.316;5.372;2022-10-30T06:17:05;18.70;56.20
73277;DHT22;61501;43.316;5.372;2022-10-30T06:19:30;18.70;55.40
73277;DHT22;61501;43.316;5.372;2022-10-30T06:21:56;18.70;55.60
73277;DHT22;61501;43.316;5.372;2022-10-30T06:24:22;18.70;55.60
73277;DHT22;61501;43.316;5.372;2022-10-30T06:26:47;18.70;55.80
73277;DHT22;61501;43.316;5.372;2022-10-30T06:29:15;18.70;55.90
73277;DHT22;61501;43.316;5.372;2022-10-30T06:31:41;18.70;56.20
73277;DHT22;61501;43.316;5.372;2022-10-30T06:34:06;18.70;56.00
73277;DHT22;61501;43.316;5.372;2022-10-30T06:36:32;18.70;56.00
73277;DHT22;61501;43.316;5.372;2022-10-30T06:38:58;18.70;56.10
73277;DHT22;61501;43.316;5.372;2022-10-30T06:41:23;18.80;56.20
73277;DHT22;61501;43.316;5.372;2022-10-30T06:43:49;18.80;56.40
73277;DHT22;61501;43.316;5.372;2022-10-30T06:46:14;18.80;56.40
73277;DHT22;61501;43.316;5.372;2022-10-30T06:48:40;18.80;56.40
73277;DHT22;61501;43.316;5.372;2022-10-30T06:51:06;18.90;56.10
73277;DHT22;61501;43.316;5.372;2022-10-30T06:53:31;19.00;56.60
73277;DHT22;61501;43.316;5.372;2022-10-30T06:56:01;19.00;56.30
73277;DHT22;61501;43.316;5.372;2022-10-30T06:58:28;19.10;56.30
73277;DHT22;61501;43.316;5.372;2022-10-30T07:00:54;19.10;56.60
73277;DHT22;61501;43.316;5.372;2022-10-30T07:03:20;19.10;57.00
73277;DHT22;61501;43.316;5.372;2022-10-30T07:05:46;19.10;56.90
73277;DHT22;61501;43.316;5.372;2022-10-30T07:08:12;19.10;56.70
73277;DHT22;61501;43.316;5.372;2022-10-30T07:10:38;19.20;57.00
73277;DHT22;61501;43.316;5.372;2022-10-30T07:13:03;19.30;57.00
73277;DHT22;61501;43.316;5.372;2022-10-30T07:15:29;19.30;57.50
73277;DHT22;61501;43.316;5.372;2022-10-30T07:17:56;19.30;56.90
73277;DHT22;61501;43.316;5.372;2022-10-30T07:20:23;19.40;57.30
73277;DHT22;61501;43.316;5.372;2022-10-30T07:22:49;19.50;57.20
73277;DHT22;61501;43.316;5.372;2022-10-30T07:25:14;19.50;57.00
73277;DHT22;61501;43.316;5.372;2022-10-30T07:27:45;19.50;57.00
73277;DHT22;61501;43.316;5.372;2022-10-30T07:30:12;19.60;57.00
73277;DHT22;61501;43.316;5.372;2022-10-30T07:32:38;19.70;57.00
73277;DHT22;61501;43.316;5.372;2022-10-30T07:35:04;19.80;57.00
73277;DHT22;61501;43.316;5.372;2022-10-30T07:37:30;19.90;56.50
73277;DHT22;61501;43.316;5.372;2022-10-30T07:39:55;19.90;56.70
73277;DHT22;61501;43.316;5.372;2022-10-30T07:42:21;20.00;56.70
73277;DHT22;61501;43.316;5.372;2022-10-30T07:44:47;20.20;56.70
73277;DHT22;61501;43.316;5.372;2022-10-30T07:47:12;20.20;56.90
73277;DHT22;61501;43.316;5.372;2022-10-30T07:49:38;20.20;56.60
73277;DHT22;61501;43.316;5.372;2022-10-30T07:52:04;20.30;56.50
73277;DHT22;61501;43.316;5.372;2022-10-30T07:54:29;20.40;56.30
73277;DHT22;61501;43.316;5.372;2022-10-30T07:56:55;20.50;56.10
73277;DHT22;61501;43.316;5.372;2022-10-30T07:59:21;20.60;56.00
73277;DHT22;61501;43.316;5.372;2022-10-30T08:01:47;20.70;56.20
73277;DHT22;61501;43.316;5.372;2022-10-30T08:04:14;20.90;55.90
73277;DHT22;61501;43.316;5.372;2022-10-30T08:06:39;21.00;56.00
73277;DHT22;61501;43.316;5.372;2022-10-30T08:09:05;21.10;56.00
73277;DHT22;61501;43.316;5.372;2022-10-30T08:11:31;21.20;56.20
73277;DHT22;61501;43.316;5.372;2022-10-30T08:13:56;21.30;55.90
73277;DHT22;61501;43.316;5.372;2022-10-30T08:16:22;21.30;55.80
73277;DHT22;61501;43.316;5.372;2022-10-30T08:18:48;21.40;56.20
73277;DHT22;61501;43.316;5.372;2022-10-30T08:21:14;21.40;56.30
73277;DHT22;61501;43.316;5.372;2022-10-30T08:23:39;21.40;56.30
73277;DHT22;61501;43.316;5.372;2022-10-30T08:26:05;21.40;56.20
73277;DHT22;61501;43.316;5.372;2022-10-30T08:28:31;21.50;56.40
73277;DHT22;61501;43.316;5.372;2022-10-30T08:30:57;21.60;56.10
73277;DHT22;61501;43.316;5.372;2022-10-30T08:33:23;21.70;56.00
73277;DHT22;61501;43.316;5.372;2022-10-30T08:35:51;21.80;55.30
73277;DHT22;61501;43.316;5.372;2022-10-30T08:38:17;21.90;55.30
73277;DHT22;61501;43.316;5.372;2022-10-30T08:40:43;21.90;55.50
73277;DHT22;61501;43.316;5.372;2022-10-30T08:43:09;22.00;55.40
73277;DHT22;61501;43.316;5.372;2022-10-30T08:45:35;22.00;55.90
73277;DHT22;61501;43.316;5.372;2022-10-30T08:48:03;22.20;55.60
73277;DHT22;61501;43.316;5.372;2022-10-30T08:50:30;22.20;55.80
73277;DHT22;61501;43.316;5.372;2022-10-30T08:52:59;22.30;55.50
73277;DHT22;61501;43.316;5.372;2022-10-30T08:55:26;22.30;55.20
73277;DHT22;61501;43.316;5.372;2022-10-30T08:57:51;22.10;54.90
73277;DHT22;61501;43.316;5.372;2022-10-30T09:00:17;21.90;55.60
73277;DHT22;61501;43.316;5.372;2022-10-30T09:02:42;21.70;57.70
73277;DHT22;61501;43.316;5.372;2022-10-30T09:05:09;21.60;58.10
73277;DHT22;61501;43.316;5.372;2022-10-30T09:07:35;21.60;58.20
73277;DHT22;61501;43.316;5.372;2022-10-30T09:10:01;21.70;57.40
73277;DHT22;61501;43.316;5.372;2022-10-30T09:12:27;21.90;57.20
73277;DHT22;61501;43.316;5.372;2022-10-30T09:14:53;21.90;57.10
73277;DHT22;61501;43.316;5.372;2022-10-30T09:17:18;21.90;58.30
73277;DHT22;61501;43.316;5.372;2022-10-30T09:19:44;22.00;57.80
73277;DHT22;61501;43.316;5.372;2022-10-30T09:22:09;22.00;57.10
73277;DHT22;61501;43.316;5.372;2022-10-30T09:24:35;21.90;56.70
73277;DHT22;61501;43.316;5.372;2022-10-30T09:27:01;22.00;56.00
73277;DHT22;61501;43.316;5.372;2022-10-30T09:29:27;22.20;55.70
73277;DHT22;61501;43.316;5.372;2022-10-30T09:31:55;22.30;55.00
73277;DHT22;61501;43.316;5.372;2022-10-30T09:34:21;22.30;54.50
73277;DHT22;61501;43.316;5.372;2022-10-30T09:36:46;22.20;54.50
73277;DHT22;61501;43.316;5.372;2022-10-30T09:39:13;22.20;55.30
73277;DHT22;61501;43.316;5.372;2022-10-30T09:45:05;22.40;54.30
73277;DHT22;61501;43.316;5.372;2022-10-30T09:50:36;22.40;54.90
73277;DHT22;61501;43.316;5.372;2022-10-30T09:56:08;22.80;54.50
73277;DHT22;61501;43.316;5.372;2022-10-30T09:59:03;22.90;53.40
73277;DHT22;61501;43.316;5.372;2022-10-30T10:01:45;23.00;53.60
73277;DHT22;61501;43.316;5.372;2022-10-30T10:04:20;23.00;54.40
73277;DHT22;61501;43.316;5.372;2022-10-30T10:06:51;23.10;54.70
73277;DHT22;61501;43.316;5.372;2022-10-30T10:09:20;23.10;55.10
73277;DHT22;61501;43.316;5.372;2022-10-30T10:11:52;23.00;57.00
73277;DHT22;61501;43.316;5.372;2022-10-30T10:14:41;23.10;57.50
73277;DHT22;61501;43.316;5.372;2022-10-30T10:17:22;23.20;56.80
73277;DHT22;61501;43.316;5.372;2022-10-30T10:19:58;23.20;57.00
73277;DHT22;61501;43.316;5.372;2022-10-30T10:22:35;23.10;57.70
73277;DHT22;61501;43.316;5.372;2022-10-30T10:25:07;23.10;58.70
73277;DHT22;61501;43.316;5.372;2022-10-30T10:30:22;23.10;59.30
73277;DHT22;61501;43.316;5.372;2022-10-30T10:38:20;23.30;58.40
73277;DHT22;61501;43.316;5.372;2022-10-30T10:40:56;23.30;58.40
73277;DHT22;61501;43.316;5.372;2022-10-30T10:43:41;23.30;59.10
73277;DHT22;61501;43.316;5.372;2022-10-30T10:46:25;23.40;59.10
73277;DHT22;61501;43.316;5.372;2022-10-30T10:51:38;23.30;60.10
73277;DHT22;61501;43.316;5.372;2022-10-30T10:56:50;23.30;62.80
73277;DHT22;61501;43.316;5.372;2022-10-30T10:59:40;23.40;61.60
73277;DHT22;61501;43.316;5.372;2022-10-30T11:02:23;23.50;61.50
73277;DHT22;61501;43.316;5.372;2022-10-30T11:04:55;23.40;61.90
73277;DHT22;61501;43.316;5.372;2022-10-30T11:07:38;23.40;63.10
73277;DHT22;61501;43.316;5.372;2022-10-30T11:10:12;23.10;65.00
73277;DHT22;61501;43.316;5.372;2022-10-30T11:12:38;23.10;65.90
73277;DHT22;61501;43.316;5.372;2022-10-30T11:15:25;23.30;66.50
73277;DHT22;61501;43.316;5.372;2022-10-30T11:18:05;23.60;66.90
73277;DHT22;61501;43.316;5.372;2022-10-30T11:20:50;23.70;67.50
73277;DHT22;61501;43.316;5.372;2022-10-30T11:23:35;23.60;67.60
73277;DHT22;61501;43.316;5.372;2022-10-30T11:26:04;23.80;69.60
73277;DHT22;61501;43.316;5.372;2022-10-30T11:28:34;23.80;69.80
73277;DHT22;61501;43.316;5.372;2022-10-30T11:31:24;23.90;70.20
73277;DHT22;61501;43.316;5.372;2022-10-30T11:33:52;24.20;68.70
73277;DHT22;61501;43.316;5.372;2022-10-30T11:36:22;24.70;67.20
73277;DHT22;61501;43.316;5.372;2022-10-30T11:38:48;25.30;64.70
73277;DHT22;61501;43.316;5.372;2022-10-30T11:41:15;25.90;61.00
73277;DHT22;61501;43.316;5.372;2022-10-30T11:43:42;27.20;59.10
73277;DHT22;61501;43.316;5.372;2022-10-30T11:46:10;28.00;54.20
73277;DHT22;61501;43.316;5.372;2022-10-30T11:48:38;28.20;54.20
73277;DHT22;61501;43.316;5.372;2022-10-30T11:51:07;27.10;57.90
73277;DHT22;61501;43.316;5.372;2022-10-30T11:53:55;28.00;55.50
73277;DHT22;61501;43.316;5.372;2022-10-30T11:56:22;28.00;55.60
73277;DHT22;61501;43.316;5.372;2022-10-30T11:58:56;28.80;54.70
73277;DHT22;61501;43.316;5.372;2022-10-30T12:01:28;30.20;51.20
73277;DHT22;61501;43.316;5.372;2022-10-30T12:03:55;28.50;55.50
73277;DHT22;61501;43.316;5.372;2022-10-30T12:06:27;28.60;54.90
73277;DHT22;61501;43.316;5.372;2022-10-30T12:09:21;29.10;55.10
73277;DHT22;61501;43.316;5.372;2022-10-30T12:11:47;27.70;56.70
73277;DHT22;61501;43.316;5.372;2022-10-30T12:14:19;26.50;61.20
73277;DHT22;61501;43.316;5.372;2022-10-30T12:16:50;26.00;63.60
73277;DHT22;61501;43.316;5.372;2022-10-30T12:19:18;27.00;60.80
73277;DHT22;61501;43.316;5.372;2022-10-30T12:21:47;28.00;58.70
73277;DHT22;61501;43.316;5.372;2022-10-30T12:24:17;28.20;57.60
73277;DHT22;61501;43.316;5.372;2022-10-30T12:26:49;27.90;58.10
73277;DHT22;61501;43.316;5.372;2022-10-30T12:29:17;26.30;64.20
73277;DHT22;61501;43.316;5.372;2022-10-30T12:31:56;27.00;63.40
73277;DHT22;61501;43.316;5.372;2022-10-30T12:34:37;27.90;60.90
73277;DHT22;61501;43.316;5.372;2022-10-30T12:37:12;27.20;63.70
73277;DHT22;61501;43.316;5.372;2022-10-30T12:42:18;25.50;71.90
73277;DHT22;61501;43.316;5.372;2022-10-30T12:45:16;26.70;68.70
73277;DHT22;61501;43.316;5.372;2022-10-30T12:51:04;26.90;67.50
73277;DHT22;61501;43.316;5.372;2022-10-30T12:53:49;28.20;65.20
73277;DHT22;61501;43.316;5.372;2022-10-30T12:56:31;29.40;60.80
73277;DHT22;61501;43.316;5.372;2022-10-30T12:59:24;27.50;64.30
73277;DHT22;61501;43.316;5.372;2022-10-30T13:02:10;25.50;72.20
73277;DHT22;61501;43.316;5.372;2022-10-30T13:04:40;25.90;73.40
73277;DHT22;61501;43.316;5.372;2022-10-30T13:07:37;26.30;70.20
73277;DHT22;61501;43.316;5.372;2022-10-30T13:10:29;26.80;68.10
73277;DHT22;61501;43.316;5.372;2022-10-30T13:13:11;25.20;74.20
73277;DHT22;61501;43.316;5.372;2022-10-30T13:15:48;25.70;73.70
73277;DHT22;61501;43.316;5.372;2022-10-30T13:18:20;26.40;71.20
73277;DHT22;61501;43.316;5.372;2022-10-30T13:23:51;26.30;71.80
73277;DHT22;61501;43.316;5.372;2022-10-30T13:29:06;27.20;67.60
73277;DHT22;61501;43.316;5.372;2022-10-30T13:31:54;27.80;65.00
73277;DHT22;61501;43.316;5.372;2022-10-30T13:37:25;26.70;69.30
73277;DHT22;61501;43.316;5.372;2022-10-30T13:40:04;26.50;69.50
73277;DHT22;61501;43.316;5.372;2022-10-30T13:48:28;25.50;76.10
73277;DHT22;61501;43.316;5.372;2022-10-30T13:53:42;25.00;78.90
73277;DHT22;61501;43.316;5.372;2022-10-30T13:56:13;25.40;77.30
73277;DHT22;61501;43.316;5.372;2022-10-30T14:01:48;25.40;76.70
73277;DHT22;61501;43.316;5.372;2022-10-30T14:04:26;26.30;72.80
73277;DHT22;61501;43.316;5.372;2022-10-30T14:07:14;26.10;73.20
73277;DHT22;61501;43.316;5.372;2022-10-30T14:12:44;25.30;76.60
73277;DHT22;61501;43.316;5.372;2022-10-30T14:20:47;25.30;80.10
73277;DHT22;61501;43.316;5.372;2022-10-30T14:28:35;25.60;78.40
73277;DHT22;61501;43.316;5.372;2022-10-30T14:31:11;26.50;74.90
73277;DHT22;61501;43.316;5.372;2022-10-30T14:36:22;25.10;81.70
73277;DHT22;61501;43.316;5.372;2022-10-30T14:44:18;25.20;82.20
73277;DHT22;61501;43.316;5.372;2022-10-30T14:57:46;24.90;85.60
73277;DHT22;61501;43.316;5.372;2022-10-30T15:05:42;24.30;88.10
73277;DHT22;61501;43.316;5.372;2022-10-30T15:13:46;25.30;84.00
73277;DHT22;61501;43.316;5.372;2022-10-30T15:16:15;25.00;85.10
73277;DHT22;61501;43.316;5.372;2022-10-30T15:18:48;24.70;86.60
73277;DHT22;61501;43.316;5.372;2022-10-30T15:21:20;24.10;90.10
73277;DHT22;61501;43.316;5.372;2022-10-30T15:23:50;25.00;87.20
73277;DHT22;61501;43.316;5.372;2022-10-30T15:26:21;25.30;83.70
73277;DHT22;61501;43.316;5.372;2022-10-30T15:28:49;24.60;88.20
73277;DHT22;61501;43.316;5.372;2022-10-30T15:31:23;24.50;89.10
73277;DHT22;61501;43.316;5.372;2022-10-30T15:33:50;25.20;85.30
73277;DHT22;61501;43.316;5.372;2022-10-30T15:36:17;26.00;81.40
73277;DHT22;61501;43.316;5.372;2022-10-30T15:38:43;26.10;79.20
73277;DHT22;61501;43.316;5.372;2022-10-30T15:41:09;26.10;82.20
73277;DHT22;61501;43.316;5.372;2022-10-30T15:43:39;25.60;82.70
73277;DHT22;61501;43.316;5.372;2022-10-30T15:46:08;25.50;84.70
73277;DHT22;61501;43.316;5.372;2022-10-30T15:48:38;26.20;79.60
73277;DHT22;61501;43.316;5.372;2022-10-30T15:51:06;25.80;80.30
73277;DHT22;61501;43.316;5.372;2022-10-30T15:56:34;25.10;83.90
73277;DHT22;61501;43.316;5.372;2022-10-30T15:59:03;25.40;82.60
73277;DHT22;61501;43.316;5.372;2022-10-30T16:01:32;26.00;80.00
73277;DHT22;61501;43.316;5.372;2022-10-30T16:03:59;26.50;78.20
73277;DHT22;61501;43.316;5.372;2022-10-30T16:08:52;24.90;81.70
73277;DHT22;61501;43.316;5.372;2022-10-30T16:11:18;24.20;86.00
73277;DHT22;61501;43.316;5.372;2022-10-30T16:13:45;23.70;90.20
73277;DHT22;61501;43.316;5.372;2022-10-30T16:16:24;23.30;91.00
73277;DHT22;61501;43.316;5.372;2022-10-30T16:18:51;23.20;91.60
73277;DHT22;61501;43.316;5.372;2022-10-30T16:21:21;23.20;91.80
73277;DHT22;61501;43.316;5.372;2022-10-30T16:23:52;23.00;92.10
73277;DHT22;61501;43.316;5.372;2022-10-30T16:28:55;22.90;92.10
73277;DHT22;61501;43.316;5.372;2022-10-30T16:31:21;22.80;92.70
73277;DHT22;61501;43.316;5.372;2022-10-30T16:33:49;22.80;92.90
73277;DHT22;61501;43.316;5.372;2022-10-30T16:36:15;22.80;92.80
73277;DHT22;61501;43.316;5.372;2022-10-30T16:38:45;22.80;92.70
73277;DHT22;61501;43.316;5.372;2022-10-30T16:41:11;22.80;92.90
73277;DHT22;61501;43.316;5.372;2022-10-30T16:43:39;22.70;93.10
73277;DHT22;61501;43.316;5.372;2022-10-30T16:48:53;22.50;93.70
73277;DHT22;61501;43.316;5.372;2022-10-30T16:51:20;22.50;93.80
73277;DHT22;61501;43.316;5.372;2022-10-30T16:53:46;22.40;94.30
73277;DHT22;61501;43.316;5.372;2022-10-30T16:56:33;22.30;94.60
73277;DHT22;61501;43.316;5.372;2022-10-30T16:59:14;22.30;94.50
73277;DHT22;61501;43.316;5.372;2022-10-30T17:01:40;22.20;94.50
73277;DHT22;61501;43.316;5.372;2022-10-30T17:04:06;22.30;94.60
73277;DHT22;61501;43.316;5.372;2022-10-30T17:06:43;22.10;95.00
73277;DHT22;61501;43.316;5.372;2022-10-30T17:09:23;22.10;95.30
73277;DHT22;61501;43.316;5.372;2022-10-30T17:12:22;22.10;95.20
73277;DHT22;61501;43.316;5.372;2022-10-30T17:17:28;22.20;95.30
73277;DHT22;61501;43.316;5.372;2022-10-30T17:22:42;22.20;95.40
73277;DHT22;61501;43.316;5.372;2022-10-30T17:25:17;22.20;95.60
73277;DHT22;61501;43.316;5.372;2022-10-30T17:27:49;22.10;95.80
73277;DHT22;61501;43.316;5.372;2022-10-30T17:30:33;22.10;95.80
73277;DHT22;61501;43.316;5.372;2022-10-30T17:33:00;22.10;96.00
73277;DHT22;61501;43.316;5.372;2022-10-30T17:35:26;22.10;96.20
73277;DHT22;61501;43.316;5.372;2022-10-30T17:37:52;22.10;96.30
73277;DHT22;61501;43.316;5.372;2022-10-30T17:40:18;22.00;96.20
73277;DHT22;61501;43.316;5.372;2022-10-30T17:42:45;22.00;96.40
73277;DHT22;61501;43.316;5.372;2022-10-30T17:45:14;22.00;96.50
73277;DHT22;61501;43.316;5.372;2022-10-30T17:47:40;22.00;96.50
73277;DHT22;61501;43.316;5.372;2022-10-30T17:50:05;22.00;96.50
73277;DHT22;61501;43.316;5.372;2022-10-30T17:52:32;22.00;96.50